createdAt,value
2022-09-11T00:00:21.772Z,99162.81
2022-09-11T00:03:25.134Z,99164.44
2022-09-11T00:06:30.661Z,99159.63
2022-09-11T00:09:33.996Z,99160.31
2022-09-11T00:12:37.248Z,99164.84
2022-09-11T00:15:41.761Z,99168.81
2022-09-11T00:18:44.956Z,99168.66
2022-09-11T00:21:51.068Z,99164.25
2022-09-11T00:24:55.111Z,99169.22
2022-09-11T00:27:58.313Z,99164.50
2022-09-11T00:31:03.520Z,99168.66
2022-09-11T00:34:08.077Z,99163.31
2022-09-11T00:37:12.714Z,99162.84
2022-09-11T00:40:16.604Z,99160.00
2022-09-11T00:43:20.225Z,99168.06
2022-09-11T00:46:26.245Z,99156.75
2022-09-11T00:49:34.123Z,99151.00
2022-09-11T00:52:42.418Z,99147.59
2022-09-11T00:55:52.320Z,99147.94
2022-09-11T00:58:57.203Z,99151.63
2022-09-11T01:02:00.779Z,99151.75
2022-09-11T01:05:05.064Z,99154.06
2022-09-11T01:08:10.534Z,99140.00
2022-09-11T01:11:27.639Z,99137.66
2022-09-11T01:14:43.112Z,99145.75
2022-09-11T01:17:55.324Z,99139.06
2022-09-11T01:21:17.587Z,99131.78
2022-09-11T01:24:54.611Z,99126.16
2022-09-11T01:28:01.347Z,99120.13
2022-09-11T01:31:10.347Z,99119.25
2022-09-11T01:34:23.017Z,99122.47
2022-09-11T01:37:32.643Z,99125.00
2022-09-11T01:40:45.931Z,99128.94
2022-09-11T01:43:56.792Z,99132.41
2022-09-11T01:47:00.451Z,99133.47
2022-09-11T01:50:07.189Z,99130.78
2022-09-11T01:53:14.256Z,99138.69
2022-09-11T01:56:22.438Z,99140.16
2022-09-11T01:59:35.180Z,99142.91
2022-09-11T02:02:43.280Z,99132.88
2022-09-11T02:05:53.289Z,99133.94
2022-09-11T02:09:02.791Z,99140.72
2022-09-11T02:12:12.460Z,99128.94
2022-09-11T02:15:18.976Z,99136.94
2022-09-11T02:18:27.022Z,99134.38
2022-09-11T02:21:31.088Z,99136.53
2022-09-11T02:24:34.791Z,99136.28
2022-09-11T02:27:38.036Z,99151.97
2022-09-11T02:30:45.090Z,99136.94
2022-09-11T02:33:49.004Z,99146.09
2022-09-11T02:37:08.108Z,99140.19
2022-09-11T02:40:27.608Z,99145.88
2022-09-11T02:43:47.978Z,99147.72
2022-09-11T02:47:01.061Z,99148.19
2022-09-11T02:50:11.860Z,99143.47
2022-09-11T02:53:25.246Z,99138.53
2022-09-11T02:56:37.013Z,99146.81
2022-09-11T02:59:45.099Z,99146.13
2022-09-11T03:02:49.879Z,99144.53
2022-09-11T03:05:53.323Z,99148.13
2022-09-11T03:08:56.885Z,99152.16
2022-09-11T03:12:00.167Z,99154.59
2022-09-11T03:15:03.543Z,99161.50
2022-09-11T03:18:08.316Z,99157.38
2022-09-11T03:21:12.281Z,99158.34
2022-09-11T03:24:17.210Z,99155.19
2022-09-11T03:27:21.691Z,99159.00
2022-09-11T03:30:24.997Z,99166.16
2022-09-11T03:33:29.887Z,99168.94
2022-09-11T03:36:34.491Z,99164.53
2022-09-11T03:39:37.817Z,99157.53
2022-09-11T03:42:41.159Z,99163.53
2022-09-11T03:45:44.869Z,99160.03
2022-09-11T03:48:52.564Z,99164.56
2022-09-11T03:51:57.729Z,99166.53
2022-09-11T03:55:01.454Z,99164.66
2022-09-11T03:58:07.236Z,99171.25
2022-09-11T04:01:19.534Z,99171.38
2022-09-11T04:04:26.023Z,99171.72
2022-09-11T04:07:31.586Z,99179.81
2022-09-11T04:10:35.391Z,99181.09
2022-09-11T04:13:42.205Z,99174.75
2022-09-11T04:16:48.941Z,99174.97
2022-09-11T04:19:55.079Z,99173.78
2022-09-11T04:22:58.452Z,99181.91
2022-09-11T04:26:01.841Z,99182.03
2022-09-11T04:29:05.182Z,99185.16
2022-09-11T04:32:08.654Z,99176.25
2022-09-11T04:35:14.363Z,99175.78
2022-09-11T04:38:25.963Z,99177.13
2022-09-11T04:41:29.888Z,99178.28
2022-09-11T04:44:36.253Z,99179.66
2022-09-11T04:47:40.051Z,99176.31
2022-09-11T04:50:48.740Z,99181.81
2022-09-11T04:54:00.748Z,99177.81
2022-09-11T04:57:10.914Z,99179.47
2022-09-11T05:00:16.380Z,99178.09
2022-09-11T05:03:21.043Z,99180.31
2022-09-11T05:06:25.722Z,99182.69
2022-09-11T05:09:29.969Z,99182.38
2022-09-11T05:12:34.759Z,99186.53
2022-09-11T05:15:38.564Z,99188.78
2022-09-11T05:18:43.409Z,99188.31
2022-09-11T05:21:49.351Z,99182.38
2022-09-11T05:24:52.735Z,99179.94
2022-09-11T05:27:55.993Z,99179.97
2022-09-11T05:31:00.067Z,99182.16
2022-09-11T05:34:03.668Z,99180.44
2022-09-11T05:37:08.364Z,99180.47
2022-09-11T05:40:17.520Z,99180.94
2022-09-11T05:43:22.508Z,99182.31
2022-09-11T05:46:27.239Z,99176.34
2022-09-11T05:49:34.405Z,99186.16
2022-09-11T05:52:40.138Z,99185.59
2022-09-11T05:55:44.122Z,99176.78
2022-09-11T05:58:48.706Z,99176.69
2022-09-11T06:01:52.798Z,99178.72
2022-09-11T06:05:07.188Z,99182.03
2022-09-11T06:08:13.026Z,99180.38
2022-09-11T06:11:18.205Z,99183.25
2022-09-11T06:14:22.336Z,99182.59
2022-09-11T06:17:28.411Z,99185.47
2022-09-11T06:20:31.670Z,99187.00
2022-09-11T06:23:39.946Z,99196.66
2022-09-11T06:26:46.610Z,99190.91
2022-09-11T06:29:50.902Z,99196.00
2022-09-11T06:32:56.659Z,99196.50
2022-09-11T06:36:01.584Z,99190.75
2022-09-11T06:39:06.326Z,99193.13
2022-09-11T06:42:11.451Z,99195.13
2022-09-11T06:45:15.159Z,99196.38
2022-09-11T06:48:20.160Z,99198.38
2022-09-11T06:51:24.576Z,99193.47
2022-09-11T06:54:30.675Z,99197.09
2022-09-11T06:57:39.864Z,99205.00
2022-09-11T07:00:49.331Z,99203.41
2022-09-11T07:03:54.474Z,99205.16
2022-09-11T07:06:58.529Z,99196.13
2022-09-11T07:10:04.432Z,99203.16
2022-09-11T07:13:09.001Z,99209.19
2022-09-11T07:16:13.757Z,99206.41
2022-09-11T07:19:19.639Z,99208.41
2022-09-11T07:22:22.923Z,99204.97
2022-09-11T07:25:30.624Z,99207.25
2022-09-11T07:28:34.526Z,99209.19
2022-09-11T07:31:40.224Z,99209.44
2022-09-11T07:34:43.599Z,99204.63
2022-09-11T07:37:50.753Z,99211.03
2022-09-11T07:40:57.136Z,99220.66
2022-09-11T07:44:01.428Z,99217.25
2022-09-11T07:47:06.743Z,99211.06
2022-09-11T07:50:15.947Z,99220.44
2022-09-11T07:53:20.131Z,99207.28
2022-09-11T07:56:26.527Z,99212.66
2022-09-11T07:59:31.091Z,99207.56
2022-09-11T08:02:35.091Z,99207.84
2022-09-11T08:05:38.350Z,99212.16
2022-09-11T08:08:43.627Z,99213.16
2022-09-11T08:11:49.618Z,99209.88
2022-09-11T08:14:54.808Z,99213.81
2022-09-11T08:17:59.660Z,99205.56
2022-09-11T08:21:04.613Z,99203.88
2022-09-11T08:24:08.240Z,99207.19
2022-09-11T08:27:13.573Z,99198.41
2022-09-11T08:30:18.971Z,99187.41
2022-09-11T08:33:22.472Z,99189.19
2022-09-11T08:36:25.973Z,99182.56
2022-09-11T08:39:29.479Z,99178.53
2022-09-11T08:42:37.847Z,99175.78
2022-09-11T08:45:41.440Z,99173.28
2022-09-11T08:48:54.698Z,99169.31
2022-09-11T08:52:02.252Z,99180.34
2022-09-11T08:55:11.001Z,99172.44
2022-09-11T08:58:23.973Z,99167.19
2022-09-11T09:01:36.143Z,99161.19
2022-09-11T09:05:01.052Z,99157.53
2022-09-11T09:08:41.985Z,99153.38
2022-09-11T09:11:56.925Z,99145.91
2022-09-11T09:15:33.334Z,99132.66
2022-09-11T09:18:41.940Z,99133.56
2022-09-11T09:21:50.860Z,99134.94
2022-09-11T09:25:00.629Z,99131.56
2022-09-11T09:28:12.539Z,99131.09
2022-09-11T09:31:22.140Z,99130.84
2022-09-11T09:34:31.465Z,99130.66
2022-09-11T09:37:35.215Z,99118.38
2022-09-11T09:40:39.928Z,99119.22
2022-09-11T09:43:56.245Z,99129.94
2022-09-11T09:47:00.888Z,99117.66
2022-09-11T09:50:04.851Z,99121.63
2022-09-11T09:53:17.936Z,99116.97
2022-09-11T09:56:23.873Z,99113.16
2022-09-11T09:59:35.514Z,99097.09
2022-09-11T10:02:42.967Z,99093.56
2022-09-11T10:05:53.492Z,99095.91
2022-09-11T10:09:01.373Z,99084.84
2022-09-11T10:12:08.931Z,99087.19
2022-09-11T10:15:22.541Z,99091.44
2022-09-11T10:18:37.900Z,99078.59
2022-09-11T10:21:41.029Z,99078.75
2022-09-11T10:24:44.331Z,99077.81
2022-09-11T10:27:56.333Z,99075.72
2022-09-11T10:31:02.552Z,99073.16
2022-09-11T10:34:07.637Z,99081.53
2022-09-11T10:37:25.382Z,99067.03
2022-09-11T10:40:28.796Z,99065.34
2022-09-11T10:43:37.888Z,99065.88
2022-09-11T10:46:43.182Z,99048.53
2022-09-11T10:49:48.115Z,99047.25
2022-09-11T10:53:00.121Z,99045.94
2022-09-11T10:56:06.058Z,99046.19
2022-09-11T10:59:23.568Z,99048.03
2022-09-11T11:02:31.760Z,99041.56
2022-09-11T11:05:48.000Z,99035.88
2022-09-11T11:09:11.145Z,99043.94
2022-09-11T11:12:32.782Z,99047.13
2022-09-11T11:15:43.838Z,99049.94
2022-09-11T11:19:01.310Z,99038.56
2022-09-11T11:22:21.294Z,99044.28
2022-09-11T11:25:31.429Z,99040.41
2022-09-11T11:28:51.598Z,99028.06
2022-09-11T11:32:09.684Z,99034.63
2022-09-11T11:35:26.037Z,99037.94
2022-09-11T11:38:35.911Z,99026.41
2022-09-11T11:41:45.029Z,99019.31
2022-09-11T11:44:54.423Z,99015.06
2022-09-11T11:47:58.260Z,99010.28
2022-09-11T11:51:06.216Z,99004.06
2022-09-11T11:54:19.173Z,98996.31
2022-09-11T11:57:27.573Z,98990.78
2022-09-11T12:00:35.475Z,98987.63
2022-09-11T12:03:43.919Z,98984.13
2022-09-11T12:06:47.247Z,98988.09
2022-09-11T12:09:54.165Z,98983.03
2022-09-11T12:13:01.700Z,98981.19
2022-09-11T12:16:17.423Z,98981.50
2022-09-11T12:19:23.777Z,98972.69
2022-09-11T12:22:39.173Z,98976.63
2022-09-11T12:26:05.204Z,98969.78
2022-09-11T12:29:51.762Z,98962.88
2022-09-11T12:32:57.191Z,98963.78
2022-09-11T12:36:01.217Z,98965.81
2022-09-11T12:39:16.174Z,98961.16
2022-09-11T12:42:56.810Z,98958.94
2022-09-11T12:46:00.269Z,98964.84
2022-09-11T12:49:22.029Z,98956.25
2022-09-11T12:52:42.874Z,98959.53
2022-09-11T12:55:56.005Z,98958.91
2022-09-11T12:59:04.904Z,98958.03
2022-09-11T13:02:26.801Z,98951.84
2022-09-11T13:05:34.735Z,98958.78
2022-09-11T13:08:46.268Z,98955.44
2022-09-11T13:11:51.197Z,98953.59
2022-09-11T13:15:02.542Z,98949.44
2022-09-11T13:18:31.720Z,98941.34
2022-09-11T13:21:38.145Z,98947.47
2022-09-11T13:24:41.461Z,98936.41
2022-09-11T13:27:47.868Z,98937.88
2022-09-11T13:31:05.295Z,98934.06
2022-09-11T13:34:14.998Z,98931.16
2022-09-11T13:37:36.588Z,98932.09
2022-09-11T13:40:44.616Z,98928.38
2022-09-11T13:43:50.893Z,98922.78
2022-09-11T13:46:56.354Z,98922.41
2022-09-11T13:50:03.273Z,98917.56
2022-09-11T13:53:06.801Z,98914.69
2022-09-11T13:56:21.589Z,98915.88
2022-09-11T13:59:46.455Z,98915.19
2022-09-11T14:02:58.659Z,98908.22
2022-09-11T14:06:06.631Z,98911.59
2022-09-11T14:09:19.412Z,98905.31
2022-09-11T14:12:23.154Z,98900.09
2022-09-11T14:15:35.258Z,98898.44
2022-09-11T14:18:45.558Z,98901.97
2022-09-11T14:21:50.763Z,98895.78
2022-09-11T14:25:03.947Z,98897.13
2022-09-11T14:28:07.658Z,98897.34
2022-09-11T14:31:13.381Z,98906.00
2022-09-11T14:34:19.772Z,98901.59
2022-09-11T14:37:23.768Z,98894.97
2022-09-11T14:40:27.307Z,98893.09
2022-09-11T14:43:33.261Z,98883.72
2022-09-11T14:46:37.107Z,98891.22
2022-09-11T14:49:41.912Z,98888.50
2022-09-11T14:52:46.523Z,98877.66
2022-09-11T14:55:51.516Z,98884.44
2022-09-11T14:58:55.176Z,98881.28
2022-09-11T15:01:59.719Z,98873.72
2022-09-11T15:05:04.401Z,98872.78
2022-09-11T15:08:07.769Z,98863.03
2022-09-11T15:11:11.034Z,98860.88
2022-09-11T15:14:27.808Z,98852.34
2022-09-11T15:17:36.500Z,98854.28
2022-09-11T15:20:41.203Z,98854.25
2022-09-11T15:23:50.108Z,98851.22
2022-09-11T15:26:54.009Z,98845.25
2022-09-11T15:29:57.442Z,98841.78
2022-09-11T15:33:00.680Z,98840.22
2022-09-11T15:36:06.880Z,98835.94
2022-09-11T15:39:14.482Z,98836.78
2022-09-11T15:42:17.901Z,98841.22
2022-09-11T15:45:21.195Z,98840.94
2022-09-11T15:48:24.502Z,98844.13
2022-09-11T15:51:29.878Z,98843.69
2022-09-11T15:54:33.154Z,98846.81
2022-09-11T15:57:36.904Z,98845.47
2022-09-11T16:00:40.167Z,98840.41
2022-09-11T16:03:43.483Z,98849.63
2022-09-11T16:06:49.912Z,98840.34
2022-09-11T16:09:53.509Z,98847.34
2022-09-11T16:12:58.973Z,98847.38
2022-09-11T16:16:04.200Z,98849.69
2022-09-11T16:19:07.592Z,98857.69
2022-09-11T16:22:12.351Z,98850.72
2022-09-11T16:25:16.143Z,98845.19
2022-09-11T16:28:19.473Z,98855.38
2022-09-11T16:31:22.878Z,98847.88
2022-09-11T16:34:26.248Z,98848.22
2022-09-11T16:37:32.897Z,98847.41
2022-09-11T16:40:36.679Z,98856.31
2022-09-11T16:43:41.232Z,98859.78
2022-09-11T16:46:45.318Z,98855.91
2022-09-11T16:53:13.981Z,98845.47
2022-09-11T16:56:19.730Z,98837.91
2022-09-11T16:59:23.050Z,98845.53
2022-09-11T17:02:26.599Z,98844.28
2022-09-11T17:05:29.908Z,98844.34
2022-09-11T17:08:35.125Z,98861.16
2022-09-11T17:11:38.508Z,98860.41
2022-09-11T17:14:41.816Z,98870.34
2022-09-11T17:17:45.052Z,98878.72
2022-09-11T17:20:48.600Z,98877.91
2022-09-11T17:23:54.615Z,98894.28
2022-09-11T17:26:58.102Z,98890.81
2022-09-11T17:30:01.533Z,98896.66
2022-09-11T17:33:05.048Z,98900.19
2022-09-11T17:36:10.801Z,98912.72
2022-09-11T17:39:15.503Z,98918.06
2022-09-11T17:42:18.736Z,98933.59
2022-09-11T17:45:23.213Z,98953.78
2022-09-11T17:48:26.616Z,98983.56
2022-09-11T17:51:30.024Z,99036.31
2022-09-11T17:54:34.845Z,99054.66
2022-09-11T17:57:38.187Z,99045.00
2022-09-11T18:00:41.542Z,99047.50
2022-09-11T18:03:49.367Z,99063.00
2022-09-11T18:06:55.789Z,99050.22
2022-09-11T18:10:00.498Z,99060.03
2022-09-11T18:13:03.759Z,99066.09
2022-09-11T18:16:11.381Z,99065.66
2022-09-11T18:19:16.576Z,99068.75
2022-09-11T18:22:20.009Z,99070.59
2022-09-11T18:25:26.134Z,99073.31
2022-09-11T18:28:29.929Z,99081.81
2022-09-11T18:31:39.940Z,99112.06
2022-09-11T18:34:43.536Z,99138.66
2022-09-11T18:37:46.781Z,99136.03
2022-09-11T18:41:00.827Z,99108.28
2022-09-11T18:44:08.328Z,99102.84
2022-09-11T18:47:11.495Z,99104.13
2022-09-11T18:50:14.784Z,99114.00
2022-09-11T18:53:18.281Z,99105.09
2022-09-11T18:56:24.296Z,99104.13
2022-09-11T18:59:27.690Z,99097.19
2022-09-11T19:02:30.891Z,99108.00
2022-09-11T19:05:34.462Z,99109.75
2022-09-11T19:08:38.784Z,99115.72
2022-09-11T19:11:44.233Z,99119.69
2022-09-11T19:14:49.204Z,99123.41
2022-09-11T19:17:55.383Z,99121.75
2022-09-11T19:21:00.375Z,99125.78
2022-09-11T19:24:04.205Z,99142.59
2022-09-11T19:27:08.860Z,99145.69
2022-09-11T19:30:13.794Z,99151.13
2022-09-11T19:33:17.061Z,99157.69
2022-09-11T19:36:22.118Z,99162.66
2022-09-11T19:39:26.852Z,99164.50
2022-09-11T19:42:32.576Z,99170.22
2022-09-11T19:45:35.851Z,99169.53
2022-09-11T19:48:40.037Z,99168.03
2022-09-11T19:51:45.055Z,99160.06
2022-09-11T19:54:48.265Z,99159.34
2022-09-11T19:57:52.973Z,99159.22
2022-09-11T20:00:56.416Z,99171.59
2022-09-11T20:04:01.805Z,99169.78
2022-09-11T20:07:05.731Z,99168.03
2022-09-11T20:10:10.980Z,99170.53
2022-09-11T20:13:17.192Z,99169.72
2022-09-11T20:16:23.590Z,99169.09
2022-09-11T20:19:27.501Z,99168.00
2022-09-11T20:22:30.973Z,99168.75
2022-09-11T20:25:34.246Z,99167.38
2022-09-11T20:28:39.710Z,99173.91
2022-09-11T20:31:48.206Z,99178.78
2022-09-11T20:34:52.465Z,99176.31
2022-09-11T20:37:56.810Z,99171.88
2022-09-11T20:41:00.694Z,99173.00
2022-09-11T20:44:13.473Z,99173.94
2022-09-11T20:47:17.236Z,99173.56
2022-09-11T20:50:20.509Z,99168.84
2022-09-11T20:53:23.908Z,99168.63
2022-09-11T20:56:27.223Z,99172.88
2022-09-11T20:59:31.923Z,99165.34
2022-09-11T21:02:35.854Z,99174.06
2022-09-11T21:05:39.697Z,99168.13
2022-09-11T21:08:44.417Z,99151.06
2022-09-11T21:11:48.126Z,99152.78
2022-09-11T21:14:53.014Z,99157.53
2022-09-11T21:17:57.118Z,99155.63
2022-09-11T21:21:00.607Z,99152.91
2022-09-11T21:24:05.756Z,99161.91
2022-09-11T21:27:09.268Z,99161.44
2022-09-11T21:30:15.231Z,99157.16
2022-09-11T21:33:19.167Z,99162.81
2022-09-11T21:36:22.544Z,99159.94
2022-09-11T21:39:25.778Z,99154.75
2022-09-11T21:42:29.054Z,99156.94
2022-09-11T21:45:33.817Z,99155.91
2022-09-11T21:48:38.612Z,99141.41
2022-09-11T21:51:41.968Z,99142.56
2022-09-11T21:54:45.272Z,99135.06
2022-09-11T21:57:48.573Z,99139.59
2022-09-11T22:00:53.395Z,99135.97
2022-09-11T22:03:56.774Z,99141.44
2022-09-11T22:07:00.477Z,99133.88
2022-09-11T22:10:04.542Z,99139.69
2022-09-11T22:13:07.869Z,99137.72
2022-09-11T22:16:14.714Z,99145.81
2022-09-11T22:19:18.133Z,99144.09
2022-09-11T22:22:21.325Z,99148.94
2022-09-11T22:25:24.631Z,99155.91
2022-09-11T22:28:28.483Z,99156.13
2022-09-11T22:31:33.299Z,99149.75
2022-09-11T22:34:37.613Z,99152.16
2022-09-11T22:37:40.868Z,99156.00
2022-09-11T22:40:44.178Z,99158.84
2022-09-11T22:43:50.144Z,99160.94
2022-09-11T22:46:54.945Z,99160.06
2022-09-11T22:49:58.216Z,99155.91
2022-09-11T22:53:01.533Z,99156.84
2022-09-11T22:56:04.804Z,99154.75
2022-09-11T22:59:08.227Z,99153.97
2022-09-11T23:02:13.636Z,99154.94
2022-09-11T23:05:34.453Z,99159.22
2022-09-11T23:08:39.573Z,99153.44
2022-09-11T23:11:42.835Z,99162.84
2022-09-11T23:14:46.136Z,99161.03
2022-09-11T23:17:50.892Z,99163.94
2022-09-11T23:20:54.774Z,99165.69
2022-09-11T23:23:59.462Z,99153.75
2022-09-11T23:27:02.689Z,99153.97
2022-09-11T23:30:06.623Z,99159.34
2022-09-11T23:33:11.908Z,99176.19
2022-09-11T23:36:16.973Z,99167.78
2022-09-11T23:39:20.253Z,99165.28
2022-09-11T23:42:24.579Z,99163.66
2022-09-11T23:45:27.930Z,99165.34
2022-09-11T23:48:32.947Z,99169.63
2022-09-11T23:51:36.225Z,99167.31
2022-09-11T23:54:39.551Z,99165.84
2022-09-11T23:57:42.847Z,99160.63
